sensor_id;sensor_type;location;lat;lon;timestamp;P1;durP1;ratioP1;P2;durP2;ratioP2
20034;SDS011;10178;48.034;9.800;2023-02-01T00:01:27;10.93;;;6.67;;
20034;SDS011;10178;48.034;9.800;2023-02-01T00:03:53;11.73;;;7.00;;
20034;SDS011;10178;48.034;9.800;2023-02-01T00:06:18;12.60;;;6.83;;
20034;SDS011;10178;48.034;9.800;2023-02-01T00:08:44;8.93;;;5.53;;
20034;SDS011;10178;48.034;9.800;2023-02-01T00:11:10;8.33;;;5.43;;
20034;SDS011;10178;48.034;9.800;2023-02-01T00:13:38;10.50;;;5.83;;
20034;SDS011;10178;48.034;9.800;2023-02-01T00:16:09;10.67;;;6.87;;
20034;SDS011;10178;48.034;9.800;2023-02-01T00:18:37;14.13;;;7.03;;
20034;SDS011;10178;48.034;9.800;2023-02-01T00:21:03;15.37;;;6.53;;
20034;SDS011;10178;48.034;9.800;2023-02-01T00:23:31;11.00;;;6.00;;
20034;SDS011;10178;48.034;9.800;2023-02-01T00:26:03;10.73;;;5.53;;
20034;SDS011;10178;48.034;9.800;2023-02-01T00:28:29;10.30;;;6.30;;
20034;SDS011;10178;48.034;9.800;2023-02-01T00:33:39;8.77;;;5.90;;
20034;SDS011;10178;48.034;9.800;2023-02-01T00:36:06;8.80;;;5.80;;
20034;SDS011;10178;48.034;9.800;2023-02-01T00:38:33;10.93;;;5.83;;
20034;SDS011;10178;48.034;9.800;2023-02-01T00:41:07;10.20;;;6.47;;
20034;SDS011;10178;48.034;9.800;2023-02-01T00:43:36;8.00;;;5.50;;
20034;SDS011;10178;48.034;9.800;2023-02-01T00:46:02;9.00;;;5.47;;
20034;SDS011;10178;48.034;9.800;2023-02-01T00:48:28;7.93;;;5.60;;
20034;SDS011;10178;48.034;9.800;2023-02-01T00:50:54;9.97;;;6.50;;
20034;SDS011;10178;48.034;9.800;2023-02-01T00:53:19;13.13;;;6.13;;
20034;SDS011;10178;48.034;9.800;2023-02-01T00:55:46;7.97;;;5.73;;
20034;SDS011;10178;48.034;9.800;2023-02-01T00:58:12;8.80;;;6.57;;
20034;SDS011;10178;48.034;9.800;2023-02-01T01:00:38;9.80;;;6.10;;
20034;SDS011;10178;48.034;9.800;2023-02-01T01:03:04;10.30;;;6.30;;
20034;SDS011;10178;48.034;9.800;2023-02-01T01:05:49;8.90;;;6.03;;
20034;SDS011;10178;48.034;9.800;2023-02-01T01:08:15;9.20;;;6.40;;
20034;SDS011;10178;48.034;9.800;2023-02-01T01:10:41;8.10;;;5.87;;
20034;SDS011;10178;48.034;9.800;2023-02-01T01:13:07;8.07;;;5.80;;
20034;SDS011;10178;48.034;9.800;2023-02-01T01:15:40;9.80;;;7.00;;
20034;SDS011;10178;48.034;9.800;2023-02-01T01:18:05;7.57;;;5.93;;
20034;SDS011;10178;48.034;9.800;2023-02-01T01:20:33;9.50;;;6.53;;
20034;SDS011;10178;48.034;9.800;2023-02-01T01:23:00;10.03;;;6.23;;
20034;SDS011;10178;48.034;9.800;2023-02-01T01:25:27;9.57;;;6.30;;
20034;SDS011;10178;48.034;9.800;2023-02-01T01:27:52;10.87;;;6.83;;
20034;SDS011;10178;48.034;9.800;2023-02-01T01:30:18;13.80;;;7.03;;
20034;SDS011;10178;48.034;9.800;2023-02-01T01:32:43;9.93;;;6.90;;
20034;SDS011;10178;48.034;9.800;2023-02-01T01:35:09;10.47;;;6.63;;
20034;SDS011;10178;48.034;9.800;2023-02-01T01:37:35;8.90;;;6.30;;
20034;SDS011;10178;48.034;9.800;2023-02-01T01:40:01;12.10;;;6.63;;
20034;SDS011;10178;48.034;9.800;2023-02-01T01:42:28;7.37;;;5.50;;
20034;SDS011;10178;48.034;9.800;2023-02-01T01:48:03;12.90;;;6.67;;
20034;SDS011;10178;48.034;9.800;2023-02-01T01:50:52;8.57;;;5.63;;
20034;SDS011;10178;48.034;9.800;2023-02-01T01:53:23;8.00;;;5.23;;
20034;SDS011;10178;48.034;9.800;2023-02-01T01:55:53;9.83;;;5.57;;
20034;SDS011;10178;48.034;9.800;2023-02-01T01:58:22;8.33;;;5.47;;
20034;SDS011;10178;48.034;9.800;2023-02-01T02:00:51;8.10;;;5.57;;
20034;SDS011;10178;48.034;9.800;2023-02-01T02:03:19;9.00;;;5.00;;
20034;SDS011;10178;48.034;9.800;2023-02-01T02:05:50;8.30;;;5.07;;
20034;SDS011;10178;48.034;9.800;2023-02-01T02:08:18;8.90;;;4.93;;
20034;SDS011;10178;48.034;9.800;2023-02-01T02:10:45;6.20;;;5.07;;
20034;SDS011;10178;48.034;9.800;2023-02-01T02:13:29;8.07;;;4.60;;
20034;SDS011;10178;48.034;9.800;2023-02-01T02:32:38;6.37;;;4.57;;
20034;SDS011;10178;48.034;9.800;2023-02-01T02:40:45;6.50;;;5.17;;
20034;SDS011;10178;48.034;9.800;2023-02-01T02:46:06;8.20;;;4.67;;
20034;SDS011;10178;48.034;9.800;2023-02-01T02:49:05;6.83;;;4.50;;
20034;SDS011;10178;48.034;9.800;2023-02-01T02:51:51;5.50;;;4.43;;
20034;SDS011;10178;48.034;9.800;2023-02-01T02:54:43;6.47;;;4.60;;
20034;SDS011;10178;48.034;9.800;2023-02-01T02:57:20;7.43;;;4.40;;
20034;SDS011;10178;48.034;9.800;2023-02-01T03:00:14;9.87;;;4.90;;
20034;SDS011;10178;48.034;9.800;2023-02-01T03:03:01;6.27;;;4.40;;
20034;SDS011;10178;48.034;9.800;2023-02-01T03:05:46;7.70;;;4.63;;
20034;SDS011;10178;48.034;9.800;2023-02-01T03:08:33;9.90;;;5.77;;
20034;SDS011;10178;48.034;9.800;2023-02-01T03:11:06;6.80;;;4.47;;
20034;SDS011;10178;48.034;9.800;2023-02-01T03:21:30;5.97;;;4.43;;
20034;SDS011;10178;48.034;9.800;2023-02-01T03:24:04;5.40;;;4.03;;
20034;SDS011;10178;48.034;9.800;2023-02-01T03:26:36;8.83;;;5.37;;
20034;SDS011;10178;48.034;9.800;2023-02-01T03:29:08;7.60;;;5.20;;
20034;SDS011;10178;48.034;9.800;2023-02-01T03:31:38;7.23;;;5.17;;
20034;SDS011;10178;48.034;9.800;2023-02-01T03:34:04;8.63;;;5.50;;
20034;SDS011;10178;48.034;9.800;2023-02-01T03:36:31;8.27;;;5.03;;
20034;SDS011;10178;48.034;9.800;2023-02-01T03:41:42;7.90;;;5.23;;
20034;SDS011;10178;48.034;9.800;2023-02-01T03:47:12;9.73;;;5.03;;
20034;SDS011;10178;48.034;9.800;2023-02-01T03:49:41;9.80;;;5.70;;
20034;SDS011;10178;48.034;9.800;2023-02-01T03:52:14;8.10;;;5.27;;
20034;SDS011;10178;48.034;9.800;2023-02-01T03:54:43;6.37;;;4.47;;
20034;SDS011;10178;48.034;9.800;2023-02-01T03:57:12;9.60;;;5.87;;
20034;SDS011;10178;48.034;9.800;2023-02-01T03:59:41;7.13;;;4.93;;
20034;SDS011;10178;48.034;9.800;2023-02-01T04:02:09;7.23;;;4.67;;
20034;SDS011;10178;48.034;9.800;2023-02-01T04:04:35;5.57;;;4.70;;
20034;SDS011;10178;48.034;9.800;2023-02-01T04:07:01;8.03;;;4.43;;
20034;SDS011;10178;48.034;9.800;2023-02-01T04:09:27;8.37;;;5.40;;
20034;SDS011;10178;48.034;9.800;2023-02-01T04:11:52;8.80;;;5.40;;
20034;SDS011;10178;48.034;9.800;2023-02-01T04:14:18;6.33;;;5.03;;
20034;SDS011;10178;48.034;9.800;2023-02-01T04:16:44;8.43;;;5.10;;
20034;SDS011;10178;48.034;9.800;2023-02-01T04:19:09;7.10;;;4.57;;
20034;SDS011;10178;48.034;9.800;2023-02-01T04:21:35;5.97;;;4.53;;
20034;SDS011;10178;48.034;9.800;2023-02-01T04:24:01;11.13;;;5.77;;
20034;SDS011;10178;48.034;9.800;2023-02-01T04:26:26;8.00;;;4.40;;
20034;SDS011;10178;48.034;9.800;2023-02-01T04:28:52;8.77;;;5.30;;
20034;SDS011;10178;48.034;9.800;2023-02-01T04:31:18;6.50;;;5.00;;
20034;SDS011;10178;48.034;9.800;2023-02-01T04:33:51;11.97;;;6.87;;
20034;SDS011;10178;48.034;9.800;2023-02-01T04:36:17;7.30;;;5.23;;
20034;SDS011;10178;48.034;9.800;2023-02-01T04:38:45;9.07;;;6.13;;
20034;SDS011;10178;48.034;9.800;2023-02-01T04:41:12;9.33;;;6.67;;
20034;SDS011;10178;48.034;9.800;2023-02-01T04:43:37;11.17;;;6.57;;
20034;SDS011;10178;48.034;9.800;2023-02-01T04:46:03;10.67;;;6.40;;
20034;SDS011;10178;48.034;9.800;2023-02-01T04:48:29;7.80;;;4.87;;
20034;SDS011;10178;48.034;9.800;2023-02-01T04:50:55;6.60;;;5.00;;
20034;SDS011;10178;48.034;9.800;2023-02-01T04:53:21;7.90;;;5.57;;
20034;SDS011;10178;48.034;9.800;2023-02-01T04:55:47;8.70;;;6.17;;
20034;SDS011;10178;48.034;9.800;2023-02-01T04:58:15;9.27;;;6.30;;
20034;SDS011;10178;48.034;9.800;2023-02-01T05:00:41;9.50;;;6.50;;
20034;SDS011;10178;48.034;9.800;2023-02-01T05:03:06;9.27;;;7.10;;
20034;SDS011;10178;48.034;9.800;2023-02-01T05:05:32;9.83;;;5.97;;
20034;SDS011;10178;48.034;9.800;2023-02-01T05:07:57;10.80;;;5.80;;
20034;SDS011;10178;48.034;9.800;2023-02-01T05:10:23;8.23;;;5.93;;
20034;SDS011;10178;48.034;9.800;2023-02-01T05:12:49;9.13;;;5.93;;
20034;SDS011;10178;48.034;9.800;2023-02-01T05:15:33;8.97;;;5.40;;
20034;SDS011;10178;48.034;9.800;2023-02-01T05:17:58;9.00;;;6.30;;
20034;SDS011;10178;48.034;9.800;2023-02-01T05:20:24;10.40;;;6.17;;
20034;SDS011;10178;48.034;9.800;2023-02-01T05:22:50;9.37;;;6.40;;
20034;SDS011;10178;48.034;9.800;2023-02-01T05:25:15;11.97;;;7.40;;
20034;SDS011;10178;48.034;9.800;2023-02-01T05:27:41;9.43;;;6.53;;
20034;SDS011;10178;48.034;9.800;2023-02-01T05:30:07;11.73;;;5.93;;
20034;SDS011;10178;48.034;9.800;2023-02-01T05:32:33;11.33;;;6.23;;
20034;SDS011;10178;48.034;9.800;2023-02-01T05:34:59;9.03;;;5.97;;
20034;SDS011;10178;48.034;9.800;2023-02-01T05:37:25;11.57;;;6.97;;
20034;SDS011;10178;48.034;9.800;2023-02-01T05:39:51;9.50;;;6.43;;
20034;SDS011;10178;48.034;9.800;2023-02-01T05:42:17;8.83;;;5.97;;
20034;SDS011;10178;48.034;9.800;2023-02-01T05:44:42;9.27;;;6.60;;
20034;SDS011;10178;48.034;9.800;2023-02-01T05:47:09;10.80;;;6.50;;
20034;SDS011;10178;48.034;9.800;2023-02-01T05:49:34;8.10;;;5.80;;
20034;SDS011;10178;48.034;9.800;2023-02-01T05:52:00;8.33;;;6.27;;
20034;SDS011;10178;48.034;9.800;2023-02-01T05:54:26;6.90;;;5.53;;
20034;SDS011;10178;48.034;9.800;2023-02-01T05:56:52;10.60;;;6.00;;
20034;SDS011;10178;48.034;9.800;2023-02-01T05:59:18;9.03;;;6.27;;
20034;SDS011;10178;48.034;9.800;2023-02-01T06:01:43;10.80;;;6.97;;
20034;SDS011;10178;48.034;9.800;2023-02-01T06:04:09;10.70;;;6.23;;
20034;SDS011;10178;48.034;9.800;2023-02-01T06:06:35;9.43;;;5.80;;
20034;SDS011;10178;48.034;9.800;2023-02-01T06:09:02;9.17;;;6.50;;
20034;SDS011;10178;48.034;9.800;2023-02-01T06:11:28;9.00;;;5.40;;
20034;SDS011;10178;48.034;9.800;2023-02-01T06:13:54;7.60;;;5.47;;
20034;SDS011;10178;48.034;9.800;2023-02-01T06:16:20;8.83;;;5.80;;
20034;SDS011;10178;48.034;9.800;2023-02-01T06:18:46;8.77;;;6.13;;
20034;SDS011;10178;48.034;9.800;2023-02-01T06:21:12;12.30;;;5.70;;
20034;SDS011;10178;48.034;9.800;2023-02-01T06:23:39;9.10;;;5.83;;
20034;SDS011;10178;48.034;9.800;2023-02-01T06:26:06;8.30;;;5.03;;
20034;SDS011;10178;48.034;9.800;2023-02-01T06:28:35;10.67;;;5.33;;
20034;SDS011;10178;48.034;9.800;2023-02-01T06:31:04;10.00;;;5.90;;
20034;SDS011;10178;48.034;9.800;2023-02-01T06:33:31;9.63;;;5.33;;
20034;SDS011;10178;48.034;9.800;2023-02-01T06:36:01;8.37;;;5.87;;
20034;SDS011;10178;48.034;9.800;2023-02-01T06:38:29;7.67;;;5.33;;
20034;SDS011;10178;48.034;9.800;2023-02-01T06:40:56;10.27;;;6.80;;
20034;SDS011;10178;48.034;9.800;2023-02-01T06:43:23;13.07;;;6.83;;
20034;SDS011;10178;48.034;9.800;2023-02-01T06:45:49;9.83;;;6.23;;
20034;SDS011;10178;48.034;9.800;2023-02-01T06:48:15;11.90;;;6.60;;
20034;SDS011;10178;48.034;9.800;2023-02-01T06:50:41;10.03;;;7.03;;
20034;SDS011;10178;48.034;9.800;2023-02-01T06:53:07;11.17;;;7.40;;
20034;SDS011;10178;48.034;9.800;2023-02-01T06:55:32;11.80;;;6.50;;
20034;SDS011;10178;48.034;9.800;2023-02-01T06:57:58;9.87;;;5.70;;
20034;SDS011;10178;48.034;9.800;2023-02-01T07:00:24;11.67;;;7.13;;
20034;SDS011;10178;48.034;9.800;2023-02-01T07:02:50;10.90;;;6.40;;
20034;SDS011;10178;48.034;9.800;2023-02-01T07:05:16;9.27;;;5.97;;
20034;SDS011;10178;48.034;9.800;2023-02-01T07:07:42;11.63;;;7.70;;
20034;SDS011;10178;48.034;9.800;2023-02-01T07:10:09;9.87;;;6.60;;
20034;SDS011;10178;48.034;9.800;2023-02-01T07:12:37;9.60;;;6.23;;
20034;SDS011;10178;48.034;9.800;2023-02-01T07:15:03;12.50;;;6.70;;
20034;SDS011;10178;48.034;9.800;2023-02-01T07:17:29;8.80;;;6.13;;
20034;SDS011;10178;48.034;9.800;2023-02-01T07:19:55;12.03;;;7.60;;
20034;SDS011;10178;48.034;9.800;2023-02-01T07:22:21;11.87;;;7.40;;
20034;SDS011;10178;48.034;9.800;2023-02-01T07:24:47;12.93;;;8.13;;
20034;SDS011;10178;48.034;9.800;2023-02-01T07:27:13;10.17;;;6.43;;
20034;SDS011;10178;48.034;9.800;2023-02-01T07:29:38;11.60;;;7.43;;
20034;SDS011;10178;48.034;9.800;2023-02-01T07:32:04;12.83;;;8.07;;
20034;SDS011;10178;48.034;9.800;2023-02-01T07:34:31;12.90;;;8.20;;
20034;SDS011;10178;48.034;9.800;2023-02-01T07:36:57;11.10;;;6.87;;
20034;SDS011;10178;48.034;9.800;2023-02-01T07:39:51;12.83;;;8.37;;
20034;SDS011;10178;48.034;9.800;2023-02-01T07:42:17;10.27;;;7.47;;
20034;SDS011;10178;48.034;9.800;2023-02-01T07:44:43;11.63;;;8.27;;
20034;SDS011;10178;48.034;9.800;2023-02-01T07:47:08;13.07;;;8.03;;
20034;SDS011;10178;48.034;9.800;2023-02-01T07:49:34;11.53;;;8.00;;
20034;SDS011;10178;48.034;9.800;2023-02-01T07:52:00;13.40;;;7.30;;
20034;SDS011;10178;48.034;9.800;2023-02-01T07:54:25;13.23;;;7.73;;
20034;SDS011;10178;48.034;9.800;2023-02-01T07:56:51;12.40;;;7.27;;
20034;SDS011;10178;48.034;9.800;2023-02-01T07:59:16;10.50;;;7.00;;
20034;SDS011;10178;48.034;9.800;2023-02-01T08:01:42;12.73;;;7.20;;
20034;SDS011;10178;48.034;9.800;2023-02-01T08:04:09;12.13;;;7.23;;
20034;SDS011;10178;48.034;9.800;2023-02-01T08:06:37;10.13;;;7.17;;
20034;SDS011;10178;48.034;9.800;2023-02-01T08:09:04;12.27;;;7.63;;
20034;SDS011;10178;48.034;9.800;2023-02-01T08:11:30;13.17;;;7.43;;
20034;SDS011;10178;48.034;9.800;2023-02-01T08:13:57;11.97;;;7.40;;
20034;SDS011;10178;48.034;9.800;2023-02-01T08:16:23;12.07;;;7.10;;
20034;SDS011;10178;48.034;9.800;2023-02-01T08:18:49;9.10;;;6.23;;
20034;SDS011;10178;48.034;9.800;2023-02-01T08:21:17;11.00;;;7.53;;
20034;SDS011;10178;48.034;9.800;2023-02-01T08:23:48;9.83;;;6.87;;
20034;SDS011;10178;48.034;9.800;2023-02-01T08:26:19;10.57;;;6.43;;
20034;SDS011;10178;48.034;9.800;2023-02-01T08:28:48;11.57;;;6.67;;
20034;SDS011;10178;48.034;9.800;2023-02-01T08:31:19;13.10;;;6.70;;
20034;SDS011;10178;48.034;9.800;2023-02-01T08:33:53;9.70;;;6.90;;
20034;SDS011;10178;48.034;9.800;2023-02-01T08:36:20;10.17;;;7.30;;
20034;SDS011;10178;48.034;9.800;2023-02-01T08:38:47;9.47;;;6.30;;
20034;SDS011;10178;48.034;9.800;2023-02-01T08:41:13;9.30;;;6.47;;
20034;SDS011;10178;48.034;9.800;2023-02-01T08:43:41;11.87;;;7.17;;
20034;SDS011;10178;48.034;9.800;2023-02-01T08:46:08;9.60;;;6.20;;
20034;SDS011;10178;48.034;9.800;2023-02-01T08:48:35;9.07;;;5.93;;
20034;SDS011;10178;48.034;9.800;2023-02-01T08:51:02;9.17;;;6.63;;
20034;SDS011;10178;48.034;9.800;2023-02-01T08:53:28;10.73;;;7.00;;
20034;SDS011;10178;48.034;9.800;2023-02-01T08:55:54;8.23;;;6.47;;
20034;SDS011;10178;48.034;9.800;2023-02-01T08:58:20;9.20;;;5.83;;
20034;SDS011;10178;48.034;9.800;2023-02-01T09:00:46;9.07;;;6.57;;
20034;SDS011;10178;48.034;9.800;2023-02-01T09:03:13;8.63;;;6.03;;
20034;SDS011;10178;48.034;9.800;2023-02-01T09:05:39;10.40;;;5.97;;
20034;SDS011;10178;48.034;9.800;2023-02-01T09:08:05;8.33;;;6.10;;
20034;SDS011;10178;48.034;9.800;2023-02-01T09:10:31;9.90;;;6.30;;
20034;SDS011;10178;48.034;9.800;2023-02-01T09:12:57;12.83;;;8.00;;
20034;SDS011;10178;48.034;9.800;2023-02-01T09:15:23;11.93;;;7.03;;
20034;SDS011;10178;48.034;9.800;2023-02-01T09:17:49;10.17;;;6.47;;
20034;SDS011;10178;48.034;9.800;2023-02-01T09:20:14;10.57;;;6.43;;
20034;SDS011;10178;48.034;9.800;2023-02-01T09:22:40;10.17;;;6.57;;
20034;SDS011;10178;48.034;9.800;2023-02-01T09:25:06;11.23;;;5.67;;
20034;SDS011;10178;48.034;9.800;2023-02-01T09:27:34;9.73;;;5.43;;
20034;SDS011;10178;48.034;9.800;2023-02-01T09:30:00;9.70;;;5.97;;
20034;SDS011;10178;48.034;9.800;2023-02-01T09:32:26;7.43;;;5.97;;
20034;SDS011;10178;48.034;9.800;2023-02-01T09:34:52;9.60;;;6.33;;
20034;SDS011;10178;48.034;9.800;2023-02-01T09:37:18;8.13;;;5.87;;
20034;SDS011;10178;48.034;9.800;2023-02-01T09:39:44;8.13;;;5.97;;
20034;SDS011;10178;48.034;9.800;2023-02-01T09:47:27;11.93;;;6.90;;
20034;SDS011;10178;48.034;9.800;2023-02-01T09:52:28;9.17;;;6.30;;
20034;SDS011;10178;48.034;9.800;2023-02-01T09:55:03;10.07;;;6.60;;
20034;SDS011;10178;48.034;9.800;2023-02-01T09:57:41;8.43;;;6.30;;
20034;SDS011;10178;48.034;9.800;2023-02-01T10:00:22;12.10;;;6.80;;
20034;SDS011;10178;48.034;9.800;2023-02-01T10:02:51;10.57;;;6.20;;
20034;SDS011;10178;48.034;9.800;2023-02-01T10:05:25;12.00;;;6.17;;
20034;SDS011;10178;48.034;9.800;2023-02-01T10:10:59;10.93;;;7.20;;
20034;SDS011;10178;48.034;9.800;2023-02-01T10:13:57;11.70;;;6.90;;
20034;SDS011;10178;48.034;9.800;2023-02-01T10:16:36;9.03;;;6.60;;
20034;SDS011;10178;48.034;9.800;2023-02-01T10:21:53;10.33;;;6.97;;
20034;SDS011;10178;48.034;9.800;2023-02-01T10:24:46;10.47;;;6.97;;
20034;SDS011;10178;48.034;9.800;2023-02-01T10:27:33;12.73;;;6.20;;
20034;SDS011;10178;48.034;9.800;2023-02-01T10:30:09;8.07;;;5.80;;
20034;SDS011;10178;48.034;9.800;2023-02-01T10:32:39;9.80;;;5.73;;
20034;SDS011;10178;48.034;9.800;2023-02-01T10:35:14;9.47;;;6.80;;
20034;SDS011;10178;48.034;9.800;2023-02-01T10:37:46;9.93;;;6.10;;
20034;SDS011;10178;48.034;9.800;2023-02-01T10:40:15;12.03;;;7.20;;
20034;SDS011;10178;48.034;9.800;2023-02-01T10:42:46;9.40;;;6.20;;
20034;SDS011;10178;48.034;9.800;2023-02-01T10:45:18;11.20;;;7.00;;
20034;SDS011;10178;48.034;9.800;2023-02-01T10:47:46;11.93;;;7.20;;
20034;SDS011;10178;48.034;9.800;2023-02-01T10:55:53;9.53;;;6.73;;
20034;SDS011;10178;48.034;9.800;2023-02-01T10:58:20;9.67;;;6.47;;
20034;SDS011;10178;48.034;9.800;2023-02-01T11:01:02;8.97;;;6.23;;
20034;SDS011;10178;48.034;9.800;2023-02-01T11:06:52;14.00;;;7.13;;
20034;SDS011;10178;48.034;9.800;2023-02-01T11:14:17;11.73;;;6.97;;
20034;SDS011;10178;48.034;9.800;2023-02-01T11:16:50;10.97;;;7.47;;
20034;SDS011;10178;48.034;9.800;2023-02-01T11:19:23;8.93;;;6.20;;
20034;SDS011;10178;48.034;9.800;2023-02-01T11:21:49;14.80;;;6.00;;
20034;SDS011;10178;48.034;9.800;2023-02-01T11:24:24;11.27;;;6.23;;
20034;SDS011;10178;48.034;9.800;2023-02-01T11:26:57;9.33;;;6.07;;
20034;SDS011;10178;48.034;9.800;2023-02-01T11:29:24;11.27;;;6.47;;
20034;SDS011;10178;48.034;9.800;2023-02-01T11:31:55;9.93;;;5.87;;
20034;SDS011;10178;48.034;9.800;2023-02-01T11:34:24;10.47;;;5.93;;
20034;SDS011;10178;48.034;9.800;2023-02-01T11:37:04;8.53;;;6.10;;
20034;SDS011;10178;48.034;9.800;2023-02-01T11:39:42;7.33;;;5.17;;
20034;SDS011;10178;48.034;9.800;2023-02-01T11:42:26;11.73;;;5.77;;
20034;SDS011;10178;48.034;9.800;2023-02-01T11:45:07;9.57;;;5.57;;
20034;SDS011;10178;48.034;9.800;2023-02-01T11:47:43;7.40;;;4.83;;
20034;SDS011;10178;48.034;9.800;2023-02-01T11:50:28;7.50;;;5.23;;
20034;SDS011;10178;48.034;9.800;2023-02-01T11:58:37;7.17;;;4.83;;
20034;SDS011;10178;48.034;9.800;2023-02-01T12:17:37;8.53;;;4.63;;
20034;SDS011;10178;48.034;9.800;2023-02-01T12:20:22;7.10;;;4.47;;
20034;SDS011;10178;48.034;9.800;2023-02-01T12:23:14;4.10;;;3.43;;
20034;SDS011;10178;48.034;9.800;2023-02-01T12:33:56;5.67;;;4.10;;
20034;SDS011;10178;48.034;9.800;2023-02-01T12:36:46;9.07;;;4.07;;
20034;SDS011;10178;48.034;9.800;2023-02-01T12:42:04;7.43;;;3.87;;
20034;SDS011;10178;48.034;9.800;2023-02-01T12:47:30;6.60;;;4.10;;
20034;SDS011;10178;48.034;9.800;2023-02-01T12:50:04;6.80;;;3.90;;
20034;SDS011;10178;48.034;9.800;2023-02-01T12:52:39;7.43;;;3.77;;
20034;SDS011;10178;48.034;9.800;2023-02-01T12:58:11;8.27;;;3.80;;
20034;SDS011;10178;48.034;9.800;2023-02-01T13:00:49;4.87;;;3.43;;
20034;SDS011;10178;48.034;9.800;2023-02-01T13:03:33;6.53;;;3.30;;
20034;SDS011;10178;48.034;9.800;2023-02-01T13:06:15;6.40;;;3.60;;
20034;SDS011;10178;48.034;9.800;2023-02-01T13:11:40;5.10;;;3.20;;
20034;SDS011;10178;48.034;9.800;2023-02-01T13:17:02;6.37;;;3.57;;
20034;SDS011;10178;48.034;9.800;2023-02-01T13:19:57;8.47;;;3.97;;
20034;SDS011;10178;48.034;9.800;2023-02-01T13:22:29;7.30;;;3.77;;
20034;SDS011;10178;48.034;9.800;2023-02-01T13:24:59;6.30;;;3.27;;
20034;SDS011;10178;48.034;9.800;2023-02-01T13:27:28;6.57;;;3.80;;
20034;SDS011;10178;48.034;9.800;2023-02-01T13:29:59;7.20;;;4.13;;
20034;SDS011;10178;48.034;9.800;2023-02-01T13:32:40;5.77;;;3.47;;
20034;SDS011;10178;48.034;9.800;2023-02-01T13:35:26;6.20;;;3.50;;
20034;SDS011;10178;48.034;9.800;2023-02-01T13:41:07;6.63;;;4.17;;
20034;SDS011;10178;48.034;9.800;2023-02-01T13:43:37;5.07;;;3.07;;
20034;SDS011;10178;48.034;9.800;2023-02-01T13:46:07;9.80;;;3.87;;
20034;SDS011;10178;48.034;9.800;2023-02-01T13:48:39;6.10;;;3.40;;
20034;SDS011;10178;48.034;9.800;2023-02-01T13:51:11;9.93;;;3.77;;
20034;SDS011;10178;48.034;9.800;2023-02-01T13:53:38;10.03;;;3.83;;
20034;SDS011;10178;48.034;9.800;2023-02-01T13:56:13;4.80;;;3.30;;
20034;SDS011;10178;48.034;9.800;2023-02-01T13:58:44;8.10;;;3.50;;
20034;SDS011;10178;48.034;9.800;2023-02-01T14:03:58;8.17;;;4.00;;
20034;SDS011;10178;48.034;9.800;2023-02-01T14:11:55;6.10;;;2.83;;
20034;SDS011;10178;48.034;9.800;2023-02-01T14:14:37;6.53;;;3.40;;
20034;SDS011;10178;48.034;9.800;2023-02-01T14:19:36;3.83;;;2.80;;
20034;SDS011;10178;48.034;9.800;2023-02-01T14:24:39;4.00;;;2.77;;
20034;SDS011;10178;48.034;9.800;2023-02-01T14:29:40;4.40;;;2.90;;
20034;SDS011;10178;48.034;9.800;2023-02-01T14:32:18;7.93;;;3.57;;
20034;SDS011;10178;48.034;9.800;2023-02-01T14:34:54;5.80;;;3.30;;
20034;SDS011;10178;48.034;9.800;2023-02-01T14:40:19;5.30;;;2.53;;
20034;SDS011;10178;48.034;9.800;2023-02-01T14:42:48;7.90;;;3.10;;
20034;SDS011;10178;48.034;9.800;2023-02-01T14:50:17;3.93;;;3.20;;
20034;SDS011;10178;48.034;9.800;2023-02-01T15:01:00;5.33;;;3.17;;
20034;SDS011;10178;48.034;9.800;2023-02-01T15:05:55;8.13;;;3.40;;
20034;SDS011;10178;48.034;9.800;2023-02-01T15:08:27;5.33;;;2.80;;
20034;SDS011;10178;48.034;9.800;2023-02-01T15:10:55;8.57;;;3.37;;
20034;SDS011;10178;48.034;9.800;2023-02-01T15:13:25;7.57;;;2.90;;
20034;SDS011;10178;48.034;9.800;2023-02-01T15:18:28;4.90;;;2.80;;
20034;SDS011;10178;48.034;9.800;2023-02-01T15:20:57;8.87;;;2.93;;
20034;SDS011;10178;48.034;9.800;2023-02-01T15:23:24;6.90;;;2.90;;
20034;SDS011;10178;48.034;9.800;2023-02-01T15:25:50;6.77;;;2.90;;
20034;SDS011;10178;48.034;9.800;2023-02-01T15:28:16;4.43;;;2.90;;
20034;SDS011;10178;48.034;9.800;2023-02-01T15:30:53;10.77;;;3.30;;
20034;SDS011;10178;48.034;9.800;2023-02-01T15:33:29;5.57;;;2.93;;
20034;SDS011;10178;48.034;9.800;2023-02-01T15:38:40;10.63;;;3.20;;
20034;SDS011;10178;48.034;9.800;2023-02-01T15:41:23;10.40;;;2.67;;
20034;SDS011;10178;48.034;9.800;2023-02-01T15:46:22;7.50;;;3.40;;
20034;SDS011;10178;48.034;9.800;2023-02-01T15:48:53;9.73;;;3.10;;
20034;SDS011;10178;48.034;9.800;2023-02-01T15:51:22;13.33;;;3.60;;
20034;SDS011;10178;48.034;9.800;2023-02-01T15:53:54;5.43;;;2.90;;
20034;SDS011;10178;48.034;9.800;2023-02-01T15:56:27;5.93;;;2.60;;
20034;SDS011;10178;48.034;9.800;2023-02-01T15:58:59;8.57;;;3.20;;
20034;SDS011;10178;48.034;9.800;2023-02-01T16:01:26;10.23;;;3.37;;
20034;SDS011;10178;48.034;9.800;2023-02-01T16:07:21;10.00;;;3.30;;
20034;SDS011;10178;48.034;9.800;2023-02-01T16:09:53;7.27;;;2.77;;
20034;SDS011;10178;48.034;9.800;2023-02-01T16:12:28;9.07;;;2.67;;
20034;SDS011;10178;48.034;9.800;2023-02-01T16:15:03;11.90;;;3.40;;
20034;SDS011;10178;48.034;9.800;2023-02-01T16:17:30;9.10;;;2.97;;
20034;SDS011;10178;48.034;9.800;2023-02-01T16:19:56;10.23;;;2.90;;
20034;SDS011;10178;48.034;9.800;2023-02-01T16:22:22;7.40;;;2.63;;
20034;SDS011;10178;48.034;9.800;2023-02-01T16:24:48;11.87;;;2.60;;
20034;SDS011;10178;48.034;9.800;2023-02-01T16:27:14;8.83;;;3.20;;
20034;SDS011;10178;48.034;9.800;2023-02-01T16:29:40;10.70;;;2.63;;
20034;SDS011;10178;48.034;9.800;2023-02-01T16:32:05;10.63;;;2.87;;
20034;SDS011;10178;48.034;9.800;2023-02-01T16:34:36;11.93;;;3.20;;
20034;SDS011;10178;48.034;9.800;2023-02-01T16:37:02;11.70;;;3.10;;
20034;SDS011;10178;48.034;9.800;2023-02-01T16:39:28;6.33;;;2.90;;
20034;SDS011;10178;48.034;9.800;2023-02-01T16:41:54;10.53;;;2.73;;
20034;SDS011;10178;48.034;9.800;2023-02-01T16:44:20;8.83;;;2.67;;
20034;SDS011;10178;48.034;9.800;2023-02-01T16:46:46;7.73;;;2.60;;
20034;SDS011;10178;48.034;9.800;2023-02-01T16:49:21;10.90;;;3.00;;
20034;SDS011;10178;48.034;9.800;2023-02-01T16:51:49;10.20;;;3.03;;
20034;SDS011;10178;48.034;9.800;2023-02-01T16:54:17;10.23;;;2.63;;
20034;SDS011;10178;48.034;9.800;2023-02-01T16:56:45;7.60;;;2.90;;
20034;SDS011;10178;48.034;9.800;2023-02-01T16:59:11;9.80;;;2.50;;
20034;SDS011;10178;48.034;9.800;2023-02-01T17:01:37;10.83;;;3.00;;
20034;SDS011;10178;48.034;9.800;2023-02-01T17:04:03;8.67;;;2.87;;
20034;SDS011;10178;48.034;9.800;2023-02-01T17:06:29;11.00;;;3.30;;
20034;SDS011;10178;48.034;9.800;2023-02-01T17:08:57;16.60;;;3.17;;
20034;SDS011;10178;48.034;9.800;2023-02-01T17:11:25;13.23;;;3.03;;
20034;SDS011;10178;48.034;9.800;2023-02-01T17:13:51;10.33;;;3.10;;
20034;SDS011;10178;48.034;9.800;2023-02-01T17:18:43;10.13;;;2.80;;
20034;SDS011;10178;48.034;9.800;2023-02-01T17:21:17;10.87;;;3.43;;
20034;SDS011;10178;48.034;9.800;2023-02-01T17:23:43;9.20;;;2.60;;
20034;SDS011;10178;48.034;9.800;2023-02-01T17:26:10;13.33;;;3.07;;
20034;SDS011;10178;48.034;9.800;2023-02-01T17:28:35;12.77;;;3.00;;
20034;SDS011;10178;48.034;9.800;2023-02-01T17:31:01;9.40;;;2.83;;
20034;SDS011;10178;48.034;9.800;2023-02-01T17:33:29;8.67;;;2.80;;
20034;SDS011;10178;48.034;9.800;2023-02-01T17:35:58;14.97;;;3.50;;
20034;SDS011;10178;48.034;9.800;2023-02-01T17:38:24;12.03;;;2.83;;
20034;SDS011;10178;48.034;9.800;2023-02-01T17:40:50;6.00;;;2.73;;
20034;SDS011;10178;48.034;9.800;2023-02-01T17:43:21;13.43;;;3.57;;
20034;SDS011;10178;48.034;9.800;2023-02-01T17:45:52;9.93;;;3.17;;